Terminal Aerodrome Forecast
Issued by NWS

Home | Current Version | Previous Version | Text Only | Print | Product List | Glossary On
Versions: 1 2 3 4 5 6 7 8 9 10 11 12 13
898
FTUS46 KPDT 221722
TAFPSC
TAF
KPSC 221722Z 2218/2318 21008KT P6SM OVC100
     FM230600 22009KT P6SM VCSH OVC100
     FM231400 23010KT P6SM SCT080 BKN140=

USA.gov is the U.S. government's official web portal to all federal, state and local government web resources and services.